Time;durP1;ratioP1;P1;durP2;ratioP2;P2;SDS_P1;SDS_P2;PMS_P1;PMS_P2;Temp;Humidity;BMP_temperature;BMP_pressure;BME280_temperature;BME280_humidity;BME280_pressure;Samples;Min_cycle;Max_cycle;Signal;HPM_P1;HPM_P2
2023/04/02 00:01:21;;;;;;;2.15;1.00;;;9.00;99.90;;;;;;4970949;28;20034;-71
2023/04/02 00:03:58;;;;;;;0.70;0.70;;;8.80;99.90;;;;;;4970137;28;20102;-71
2023/04/02 00:06:31;;;;;;;1.02;0.90;;;9.40;97.00;;;;;;4970568;28;20106;-71
2023/04/02 00:09:12;;;;;;;1.17;0.88;;;9.10;96.70;;;;;;4970725;28;20037;-71
2023/04/02 00:11:44;;;;;;;1.30;0.80;;;9.00;99.90;;;;;;4958206;28;20038;-71
2023/04/02 00:14:32;;;;;;;0.60;0.60;;;9.10;97.50;;;;;;4969510;28;20026;-71
2023/04/02 00:17:00;;;;;;;1.30;0.80;;;9.30;99.90;;;;;;4970357;28;20031;-71
2023/04/02 00:19:53;;;;;;;4.68;0.90;;;9.00;99.90;;;;;;4970236;28;20042;-71
2023/04/02 00:22:24;;;;;;;0.77;0.70;;;9.00;97.70;;;;;;4970162;28;20049;-71
2023/04/02 00:24:53;;;;;;;2.30;1.10;;;9.30;99.90;;;;;;4961628;28;20378;-71
2023/04/02 00:27:19;;;;;;;1.13;1.00;;;9.00;99.90;;;;;;4968522;28;20165;-71
2023/04/02 00:29:51;;;;;;;0.70;0.60;;;9.00;99.00;;;;;;4969811;28;20055;-71
2023/04/02 00:32:30;;;;;;;1.20;0.98;;;9.00;97.80;;;;;;4969351;28;20030;-71
2023/04/02 00:34:57;;;;;;;4.32;1.20;;;8.90;98.90;;;;;;4969011;28;20030;-71
2023/04/02 00:37:27;;;;;;;1.42;0.80;;;8.90;99.40;;;;;;4970541;28;20031;-70
2023/04/02 00:40:03;;;;;;;0.80;0.80;;;8.90;99.90;;;;;;4969834;28;20030;-71
2023/04/02 00:42:32;;;;;;;0.70;0.70;;;8.90;99.90;;;;;;4968840;28;20031;-71
2023/04/02 00:45:00;;;;;;;0.93;0.63;;;8.70;99.90;;;;;;4969776;28;20034;-71
2023/04/02 00:47:32;;;;;;;1.55;0.75;;;8.80;99.90;;;;;;4970095;28;20051;-71
2023/04/02 00:50:01;;;;;;;1.15;1.05;;;;;;;;;;4969863;28;20443;-71
2023/04/02 00:52:30;;;;;;;1.40;0.90;;;8.90;99.50;;;;;;4969568;28;20129;-70
2023/04/02 00:55:03;;;;;;;2.75;0.77;;;8.80;99.90;;;;;;4969862;28;20034;-71
2023/04/02 00:57:32;;;;;;;8.18;1.35;;;8.80;99.90;;;;;;4969675;28;20548;-71
2023/04/02 00:59:57;;;;;;;2.45;1.00;;;9.00;99.90;;;;;;4969234;28;20019;-71
2023/04/02 01:02:32;;;;;;;2.28;0.80;;;8.80;99.90;;;;;;4969674;28;20034;-71
2023/04/02 01:05:18;;;;;;;1.17;0.70;;;9.30;99.90;;;;;;4970067;28;20022;-71
2023/04/02 01:08:32;;;;;;;1.70;0.90;;;8.80;99.50;;;;;;4969309;28;20452;-71
2023/04/02 01:11:17;;;;;;;0.70;0.70;;;8.50;99.90;;;;;;4986568;28;20141;-71
2023/04/02 01:14:19;;;;;;;0.60;0.60;;;8.80;99.90;;;;;;4986196;28;20043;-71
2023/04/02 01:16:45;;;;;;;1.58;1.00;;;;;;;;;;4986356;28;20622;-71
2023/04/02 01:19:52;;;;;;;1.63;1.52;;;8.30;99.00;;;;;;4986473;28;20030;-71
2023/04/02 01:22:46;;;;;;;1.25;0.88;;;9.00;99.90;;;;;;5002479;28;20496;-71
2023/04/02 01:25:25;;;;;;;2.38;1.00;;;9.00;99.90;;;;;;4985845;28;20589;-71
2023/04/02 01:27:58;;;;;;;1.20;1.20;;;9.00;99.90;;;;;;4985402;28;20500;-71
2023/04/02 01:30:24;;;;;;;1.10;1.00;;;8.90;99.90;;;;;;4986206;28;20037;-71
2023/04/02 01:32:50;;;;;;;1.15;0.88;;;;;;;;;;4985293;28;20478;-71
2023/04/02 01:35:16;;;;;;;0.80;0.80;;;8.90;98.80;;;;;;4985680;28;20026;-71
2023/04/02 01:37:52;;;;;;;0.90;0.90;;;8.90;99.90;;;;;;4986090;28;20121;-71
2023/04/02 01:41:01;;;;;;;0.80;0.80;;;9.10;99.90;;;;;;4986938;28;20026;-71
2023/04/02 01:43:47;;;;;;;0.80;0.80;;;8.70;99.90;;;;;;4931916;29;20031;-71
2023/04/02 01:46:31;;;;;;;0.60;0.60;;;8.90;98.90;;;;;;4924818;29;20544;-70
2023/04/02 01:49:00;;;;;;;2.13;0.80;;;8.80;99.90;;;;;;4912886;29;20036;-71
2023/04/02 01:51:31;;;;;;;0.70;0.70;;;8.60;99.90;;;;;;4913076;29;20071;-71
2023/04/02 01:54:00;;;;;;;2.58;0.73;;;9.10;99.90;;;;;;4912786;29;20458;-71
2023/04/02 01:56:27;;;;;;;1.38;0.70;;;8.70;99.90;;;;;;4912935;29;20094;-71
2023/04/02 01:58:53;;;;;;;0.95;0.95;;;;;;;;;;4912575;29;20047;-71
2023/04/02 02:01:24;;;;;;;1.67;1.30;;;9.00;99.00;;;;;;4912903;29;20524;-71
2023/04/02 02:03:52;;;;;;;1.25;0.88;;;9.00;99.20;;;;;;4912115;29;20036;-70
2023/04/02 02:06:18;;;;;;;1.00;0.88;;;9.10;99.90;;;;;;4913514;29;20035;-70
2023/04/02 02:09:05;;;;;;;1.20;1.00;;;8.90;99.50;;;;;;4912761;29;20853;-71
2023/04/02 02:11:32;;;;;;;4.97;0.70;;;9.00;99.20;;;;;;4912635;29;20488;-71
2023/04/02 02:14:21;;;;;;;1.77;0.90;;;8.70;99.90;;;;;;4935788;28;20093;-71
2023/04/02 02:16:47;;;;;;;2.80;0.68;;;8.90;99.40;;;;;;4972417;28;20034;-72
2023/04/02 02:19:35;;;;;;;0.60;0.60;;;9.00;99.10;;;;;;4972466;28;20023;-71
2023/04/02 02:22:26;;;;;;;0.98;0.57;;;8.80;99.90;;;;;;4972039;28;20023;-71
2023/04/02 02:24:52;;;;;;;0.85;0.68;;;8.70;99.90;;;;;;4971846;28;20042;-71
2023/04/02 02:27:24;;;;;;;1.20;1.10;;;9.20;99.90;;;;;;4972422;28;20396;-71
2023/04/02 02:30:13;;;;;;;3.90;0.68;;;9.00;99.00;;;;;;4972351;28;20030;-71
2023/04/02 02:32:57;;;;;;;1.02;0.93;;;8.80;99.90;;;;;;4971816;28;20042;-71
2023/04/02 02:35:45;;;;;;;0.68;0.68;;;8.90;98.90;;;;;;4960680;28;20684;-71
2023/04/02 02:38:11;;;;;;;1.38;0.93;;;;;;;;;;4972056;28;20026;-71
2023/04/02 02:40:43;;;;;;;1.25;1.15;;;8.90;99.00;;;;;;4971939;28;20511;-71
2023/04/02 02:43:12;;;;;;;4.72;1.00;;;8.70;99.90;;;;;;4971551;28;20034;-71
2023/04/02 02:45:40;;;;;;;1.40;0.70;;;9.00;98.80;;;;;;4971926;28;20042;-72
2023/04/02 02:48:11;;;;;;;6.25;0.93;;;8.70;99.90;;;;;;4971699;28;20082;-71
2023/04/02 02:50:37;;;;;;;0.70;0.70;;;8.80;99.90;;;;;;4971709;28;20023;-72
2023/04/02 02:53:13;;;;;;;2.80;1.02;;;9.00;98.80;;;;;;4971244;28;20523;-71
2023/04/02 02:55:39;;;;;;;1.27;0.88;;;8.90;98.40;;;;;;4971052;28;20022;-71
2023/04/02 02:58:10;;;;;;;1.48;1.25;;;8.80;99.30;;;;;;4971336;28;20069;-70
2023/04/02 03:00:38;;;;;;;0.75;0.70;;;9.20;99.00;;;;;;4971331;28;20480;-71
2023/04/02 03:03:08;;;;;;;0.63;0.63;;;9.10;99.90;;;;;;4971478;28;20110;-71
2023/04/02 03:05:35;;;;;;;0.70;0.68;;;8.80;99.90;;;;;;4971595;28;20419;-71
2023/04/02 03:08:03;;;;;;;0.47;0.47;;;9.10;99.90;;;;;;4971423;28;20034;-71
2023/04/02 03:10:39;;;;;;;11.98;1.05;;;8.90;99.90;;;;;;4971316;28;20408;-70
2023/04/02 03:13:28;;;;;;;4.27;1.00;;;8.80;99.90;;;;;;4971695;28;20416;-71
2023/04/02 03:15:54;;;;;;;2.67;0.70;;;;;;;;;;4960260;28;20113;-71
2023/04/02 03:18:27;;;;;;;0.70;0.70;;;9.00;98.80;;;;;;4970641;28;20149;-71
2023/04/02 03:20:57;;;;;;;1.33;0.85;;;8.90;98.80;;;;;;4970988;28;20030;-70
2023/04/02 03:23:35;;;;;;;0.85;0.60;;;8.90;98.70;;;;;;4970612;28;20490;-71
2023/04/02 03:26:26;;;;;;;2.92;0.88;;;8.90;98.90;;;;;;4970087;28;20145;-71
2023/04/02 03:29:05;;;;;;;0.93;0.70;;;8.80;98.90;;;;;;4971303;28;20062;-72
2023/04/02 03:31:36;;;;;;;0.77;0.77;;;9.00;99.90;;;;;;4970915;28;20019;-71
2023/04/02 03:34:17;;;;;;;0.68;0.68;;;8.80;99.90;;;;;;4969752;28;20035;-71
2023/04/02 03:36:56;;;;;;;0.63;0.63;;;8.60;99.90;;;;;;4970507;28;20073;-71
2023/04/02 03:39:26;;;;;;;2.45;1.15;;;8.40;99.90;;;;;;4970726;28;20037;-70
2023/04/02 03:42:20;;;;;;;1.73;1.13;;;8.80;99.90;;;;;;4971046;28;20074;-72
2023/04/02 03:44:52;;;;;;;3.33;1.00;;;8.90;99.90;;;;;;4970625;28;20038;-71
2023/04/02 03:47:26;;;;;;;0.95;0.95;;;8.60;99.90;;;;;;4971086;28;20082;-71
2023/04/02 03:49:56;;;;;;;1.63;0.95;;;8.60;99.90;;;;;;4970838;28;20488;-71
2023/04/02 03:52:26;;;;;;;3.35;1.40;;;8.60;99.90;;;;;;4970552;28;20041;-70
2023/04/02 03:54:58;;;;;;;0.82;0.77;;;8.80;99.90;;;;;;4970954;28;20558;-71
2023/04/02 03:57:24;;;;;;;2.40;0.90;;;;;;;;;;4970360;28;20023;-71
2023/04/02 03:59:59;;;;;;;1.15;0.73;;;8.60;99.90;;;;;;4971071;28;20033;-71
2023/04/02 04:02:25;;;;;;;1.48;1.13;;;;;;;;;;4970276;28;20055;-71
2023/04/02 04:04:52;;;;;;;1.65;0.98;;;8.60;99.90;;;;;;4970225;28;20034;-71
2023/04/02 04:07:40;;;;;;;0.93;0.93;;;8.50;99.90;;;;;;4970799;28;20070;-71
2023/04/02 04:10:14;;;;;;;0.75;0.65;;;8.50;99.90;;;;;;4970693;28;20155;-71
2023/04/02 04:12:45;;;;;;;2.22;1.02;;;9.00;99.90;;;;;;4970613;28;20180;-70
2023/04/02 04:15:19;;;;;;;2.20;1.85;;;8.60;99.90;;;;;;4969957;28;20035;-71
2023/04/02 04:17:52;;;;;;;0.60;0.60;;;8.60;99.90;;;;;;4970737;28;20042;-70
2023/04/02 04:20:38;;;;;;;0.60;0.50;;;9.00;99.90;;;;;;4970373;28;20074;-71
2023/04/02 04:23:16;;;;;;;0.82;0.82;;;8.70;99.90;;;;;;4969958;28;20042;-70
2023/04/02 04:25:43;;;;;;;1.10;1.00;;;;;;;;;;4969931;28;20042;-72
2023/04/02 04:28:25;;;;;;;2.67;0.90;;;8.50;99.90;;;;;;4970363;28;20046;-71
2023/04/02 04:31:02;;;;;;;1.27;0.80;;;8.50;99.90;;;;;;4969743;28;20065;-71
2023/04/02 04:33:40;;;;;;;;;;;8.60;99.90;;;;;;4968907;28;20689;-71
2023/04/02 04:36:20;;;;;;;3.60;0.80;;;8.70;99.90;;;;;;4984427;28;20335;-71
2023/04/02 04:38:54;;;;;;;0.60;0.60;;;8.90;99.90;;;;;;4970254;28;20038;-71
2023/04/02 04:41:25;;;;;;;0.90;0.77;;;8.50;99.90;;;;;;4969909;28;20530;-71
2023/04/02 04:43:57;;;;;;;0.70;0.70;;;8.60;99.90;;;;;;4970182;28;20122;-71
2023/04/02 04:46:30;;;;;;;1.23;0.85;;;8.50;99.90;;;;;;4969993;28;20420;-71
2023/04/02 04:49:34;;;;;;;1.08;0.98;;;8.40;99.90;;;;;;4969606;28;20042;-71
2023/04/02 04:52:26;;;;;;;2.15;1.25;;;8.50;99.90;;;;;;4985937;28;20090;-70
2023/04/02 04:54:51;;;;;;;2.65;1.77;;;8.40;99.90;;;;;;4968811;28;20038;-71
2023/04/02 04:57:35;;;;;;;1.08;0.95;;;8.20;99.90;;;;;;4986314;28;20443;-71
2023/04/02 05:00:19;;;;;;;1.63;1.08;;;8.30;99.90;;;;;;4986739;28;20033;-69
2023/04/02 05:03:02;;;;;;;1.27;1.17;;;8.30;99.90;;;;;;4984151;28;20062;-70
2023/04/02 05:05:32;;;;;;;0.60;0.60;;;8.30;99.90;;;;;;4986069;28;20125;-71
2023/04/02 05:08:04;;;;;;;1.05;0.95;;;8.70;99.90;;;;;;4986420;28;20034;-71
2023/04/02 05:10:41;;;;;;;1.10;1.00;;;8.50;99.90;;;;;;4985670;28;20554;-71
2023/04/02 05:13:16;;;;;;;0.52;0.52;;;8.40;99.90;;;;;;4986510;28;20046;-71
2023/04/02 05:16:12;;;;;;;0.70;0.70;;;8.30;99.90;;;;;;4977396;28;20034;-71
2023/04/02 05:18:48;;;;;;;0.80;0.80;;;8.30;99.90;;;;;;4990140;28;20022;-70
2023/04/02 05:21:20;;;;;;;0.60;0.60;;;8.40;99.90;;;;;;4990350;28;20034;-71
2023/04/02 05:23:55;;;;;;;0.95;0.85;;;8.60;99.90;;;;;;4990102;28;20140;-71
2023/04/02 05:26:29;;;;;;;1.88;0.93;;;8.40;99.90;;;;;;4989897;28;20101;-71
2023/04/02 05:29:00;;;;;;;0.70;0.68;;;8.50;99.90;;;;;;4973018;28;20026;-71
2023/04/02 05:31:48;;;;;;;0.95;0.60;;;8.50;99.90;;;;;;4972960;28;20070;-71
2023/04/02 05:34:25;;;;;;;1.17;1.00;;;8.50;99.90;;;;;;4972142;28;20166;-71
2023/04/02 05:36:51;;;;;;;0.90;0.90;;;;;;;;;;4961055;28;20089;-71
2023/04/02 05:39:21;;;;;;;1.25;0.93;;;8.80;99.90;;;;;;4973149;28;20019;-72
2023/04/02 05:41:47;;;;;;;0.80;0.80;;;8.40;99.90;;;;;;4973172;28;20027;-71
2023/04/02 05:44:32;;;;;;;0.93;0.93;;;8.60;99.90;;;;;;4972926;28;20019;-71
2023/04/02 05:47:13;;;;;;;1.00;1.00;;;8.60;99.90;;;;;;4971998;28;20811;-71
2023/04/02 05:49:51;;;;;;;1.00;0.90;;;8.60;99.90;;;;;;4972821;28;20031;-71
2023/04/02 05:52:26;;;;;;;0.88;0.88;;;8.70;99.90;;;;;;4972639;28;20038;-71
2023/04/02 05:55:20;;;;;;;1.80;0.98;;;8.80;99.90;;;;;;4972789;28;20034;-71
2023/04/02 05:57:52;;;;;;;0.80;0.80;;;8.70;99.90;;;;;;4973031;28;20038;-71
2023/04/02 06:00:25;;;;;;;1.05;1.00;;;8.90;99.90;;;;;;4966984;28;20381;-71
2023/04/02 06:02:58;;;;;;;2.35;1.00;;;8.90;99.90;;;;;;4973253;28;20019;-71
2023/04/02 06:05:34;;;;;;;5.22;3.25;;;8.90;99.90;;;;;;4965092;28;20034;-71
2023/04/02 06:08:16;;;;;;;4.68;1.73;;;9.00;99.90;;;;;;4964274;28;20035;-71
2023/04/02 06:11:24;;;;;;;5.50;3.20;;;9.00;99.90;;;;;;4961789;28;20011;-71
2023/04/02 06:13:50;;;;;;;5.50;2.90;;;;;;;;;;4989036;28;20046;-72
2023/04/02 06:16:16;;;;;;;1.50;1.40;;;9.20;99.90;;;;;;4989313;28;20061;-71
2023/04/02 06:18:43;;;;;;;1.05;0.95;;;9.10;99.90;;;;;;4989213;28;20070;-71
2023/04/02 06:21:13;;;;;;;1.43;1.33;;;9.00;99.60;;;;;;4988850;28;20030;-71
2023/04/02 06:23:55;;;;;;;1.65;1.20;;;9.10;99.90;;;;;;4988734;28;20064;-71
2023/04/02 06:26:27;;;;;;;2.63;1.20;;;9.30;99.90;;;;;;4988428;28;20045;-71
2023/04/02 06:29:18;;;;;;;0.70;0.70;;;9.20;99.30;;;;;;4983996;28;20023;-71
2023/04/02 06:31:49;;;;;;;1.25;1.10;;;9.20;99.00;;;;;;4983799;28;20050;-71
2023/04/02 06:34:17;;;;;;;3.85;1.50;;;9.20;98.70;;;;;;4983314;28;20034;-71
2023/04/02 06:36:45;;;;;;;4.22;1.08;;;9.20;98.40;;;;;;4981306;28;20130;-72
2023/04/02 06:39:18;;;;;;;2.72;1.45;;;9.20;98.50;;;;;;4986625;28;20113;-72
2023/04/02 06:41:44;;;;;;;1.05;0.95;;;;;;;;;;4986564;28;20030;-71
2023/04/02 06:44:20;;;;;;;1.55;0.95;;;9.40;99.90;;;;;;4978694;28;20089;-71
2023/04/02 06:46:49;;;;;;;0.93;0.90;;;9.30;98.30;;;;;;4982776;28;20042;-71
2023/04/02 06:49:40;;;;;;;1.17;1.08;;;9.20;99.90;;;;;;4986889;28;20134;-71
2023/04/02 06:52:15;;;;;;;3.13;0.85;;;9.00;98.90;;;;;;4970319;28;20515;-71
2023/04/02 06:54:41;;;;;;;2.00;1.30;;;9.20;99.90;;;;;;4970630;28;20050;-71
2023/04/02 06:57:08;;;;;;;2.15;1.10;;;9.40;99.90;;;;;;4970379;28;20038;-70
2023/04/02 06:59:34;;;;;;;3.03;1.50;;;;;;;;;;4969372;28;20102;-72
2023/04/02 07:02:03;;;;;;;1.98;1.25;;;9.60;97.80;;;;;;4983984;28;20030;-72
2023/04/02 07:04:29;;;;;;;0.80;0.80;;;;;;;;;;4968565;28;20034;-71
2023/04/02 07:06:55;;;;;;;1.33;1.27;;;;;;;;;;4992157;28;20038;-71
2023/04/02 07:09:21;;;;;;;1.20;1.10;;;9.90;99.90;;;;;;4966928;28;20432;-71
2023/04/02 07:11:47;;;;;;;3.25;1.33;;;;;;;;;;4964570;28;20082;-71
2023/04/02 07:14:13;;;;;;;0.95;0.93;;;10.10;99.90;;;;;;4967225;28;20035;-72
2023/04/02 07:16:40;;;;;;;4.85;2.05;;;10.20;98.50;;;;;;4967519;28;20034;-71
2023/04/02 07:19:11;;;;;;;2.83;1.50;;;10.00;99.90;;;;;;4970101;28;20050;-71
2023/04/02 07:21:37;;;;;;;1.85;1.63;;;;;;;;;;4969878;28;20030;-72
2023/04/02 07:24:03;;;;;;;4.72;2.83;;;;;;;;;;4968979;28;20077;-71
2023/04/02 07:26:29;;;;;;;1.73;1.63;;;;;;;;;;4970345;28;20042;-72
2023/04/02 07:28:55;;;;;;;1.98;1.60;;;9.50;96.60;;;;;;4965498;28;20058;-72
2023/04/02 07:31:26;;;;;;;1.92;1.38;;;9.40;99.90;;;;;;4960149;28;20114;-70
2023/04/02 07:33:54;;;;;;;1.10;0.95;;;9.50;96.30;;;;;;4968101;28;20027;-70
2023/04/02 07:36:22;;;;;;;1.63;1.30;;;9.50;96.30;;;;;;4959243;28;20439;-71
2023/04/02 07:38:49;;;;;;;4.38;1.08;;;;;;;;;;4974590;28;20031;-70
2023/04/02 07:41:15;;;;;;;1.23;1.13;;;9.60;96.40;;;;;;4967636;28;20206;-71
2023/04/02 07:43:42;;;;;;;1.30;1.10;;;9.60;99.90;;;;;;4962786;28;20030;-70
2023/04/02 07:46:08;;;;;;;8.63;1.67;;;9.60;96.60;;;;;;4967768;28;20057;-70
2023/04/02 07:48:34;;;;;;;3.00;1.48;;;9.70;99.90;;;;;;4969708;28;20063;-71
2023/04/02 07:51:02;;;;;;;15.57;7.18;;;10.20;98.60;;;;;;4969485;28;20065;-71
2023/04/02 07:53:30;;;;;;;20.10;8.88;;;;;;;;;;4968366;28;20042;-71
2023/04/02 07:56:00;;;;;;;25.50;9.13;;;10.90;96.10;;;;;;4968873;28;20034;-71
2023/04/02 07:58:26;;;;;;;4.00;3.35;;;10.90;96.90;;;;;;4967343;28;20041;-70
2023/04/02 08:00:52;;;;;;;8.93;4.63;;;;;;;;;;4982577;28;20527;-70
2023/04/02 08:03:18;;;;;;;22.65;7.45;;;10.90;96.50;;;;;;4968609;28;20563;-70
2023/04/02 08:05:53;;;;;;;7.65;3.75;;;10.50;98.10;;;;;;4968933;28;20098;-70
2023/04/02 08:08:20;;;;;;;5.07;3.00;;;10.70;95.60;;;;;;4968563;28;20035;-70
2023/04/02 08:10:46;;;;;;;10.10;3.60;;;10.30;96.50;;;;;;4963195;28;20020;-71
2023/04/02 08:13:13;;;;;;;3.35;1.55;;;10.60;91.90;;;;;;4955357;28;20075;-70
2023/04/02 08:15:39;;;;;;;2.47;1.83;;;;;;;;;;4968046;28;20058;-71
2023/04/02 08:18:05;;;;;;;3.97;2.15;;;;;;;;;;4967627;28;20058;-70
2023/04/02 08:20:31;;;;;;;8.48;4.57;;;;;;;;;;4958580;28;20038;-71
2023/04/02 08:22:57;;;;;;;7.72;4.32;;;11.30;93.60;;;;;;4963759;28;20026;-71
2023/04/02 08:25:23;;;;;;;5.72;2.55;;;10.30;90.30;;;;;;4969010;28;20026;-71
2023/04/02 08:27:49;;;;;;;6.25;3.05;;;;;;;;;;4968568;28;20030;-71
2023/04/02 08:30:16;;;;;;;21.13;7.35;;;11.10;86.00;;;;;;4956825;28;20035;-71
2023/04/02 08:32:42;;;;;;;;;;;11.30;86.60;;;;;;4964861;28;20121;-70
2023/04/02 08:35:10;;;;;;;3.67;2.60;;;10.80;97.80;;;;;;4981312;28;19961;-70
2023/04/02 08:37:36;;;;;;;1.95;1.27;;;10.70;90.40;;;;;;4961277;28;20073;-71
2023/04/02 08:40:02;;;;;;;4.45;2.30;;;10.30;90.60;;;;;;4962237;28;20031;-72
2023/04/02 08:42:40;;;;;;;2.40;1.17;;;10.20;91.60;;;;;;4961708;28;20038;-71
2023/04/02 08:45:20;;;;;;;2.15;1.50;;;10.40;99.90;;;;;;4963038;28;20876;-73
2023/04/02 08:47:48;;;;;;;7.10;3.53;;;;;;;;;;4966946;28;20042;-72
2023/04/02 08:50:33;;;;;;;6.68;3.08;;;11.00;92.30;;;;;;4968192;28;20027;-71
2023/04/02 08:52:59;;;;;;;4.93;3.17;;;;;;;;;;4965654;28;20165;-72
2023/04/02 08:55:41;;;;;;;4.75;3.15;;;11.60;86.30;;;;;;4966341;28;20030;-71
2023/04/02 08:58:10;;;;;;;15.23;5.25;;;11.60;84.30;;;;;;4964631;28;20035;-71
2023/04/02 09:00:40;;;;;;;10.93;4.22;;;11.40;83.80;;;;;;4966114;28;20507;-71
2023/04/02 09:03:35;;;;;;;4.40;3.20;;;11.10;84.50;;;;;;4962057;28;20065;-72
2023/04/02 09:06:02;;;;;;;3.38;2.03;;;10.90;96.20;;;;;;4967474;28;20033;-71
2023/04/02 09:08:30;;;;;;;2.75;2.08;;;11.00;97.70;;;;;;4968415;28;20031;-71
2023/04/02 09:10:56;;;;;;;2.15;1.55;;;;;;;;;;4968285;28;20039;-70
2023/04/02 09:13:26;;;;;;;2.88;2.00;;;11.10;92.30;;;;;;4983136;28;20097;-69
2023/04/02 09:16:00;;;;;;;2.67;1.60;;;10.90;87.40;;;;;;4966730;28;20026;-70
2023/04/02 09:18:28;;;;;;;5.13;1.45;;;10.50;86.00;;;;;;4968758;28;20038;-71
2023/04/02 09:20:54;;;;;;;2.70;1.90;;;;;;;;;;4966391;28;20043;-71
2023/04/02 09:23:22;;;;;;;1.77;1.60;;;10.70;86.40;;;;;;4967497;28;20041;-72
2023/04/02 09:25:50;;;;;;;3.65;1.90;;;10.50;92.80;;;;;;4968723;28;20055;-73
2023/04/02 09:28:19;;;;;;;0.98;0.98;;;10.50;86.40;;;;;;4968033;28;20026;-71
2023/04/02 09:30:53;;;;;;;1.60;1.45;;;10.60;87.00;;;;;;4968015;28;20126;-72
2023/04/02 09:33:20;;;;;;;2.53;1.48;;;;;;;;;;4965370;28;20045;-71
2023/04/02 09:35:48;;;;;;;2.20;1.40;;;10.60;84.60;;;;;;4967868;28;20027;-70
2023/04/02 09:38:21;;;;;;;3.65;1.42;;;10.10;86.10;;;;;;4966434;28;20034;-73
2023/04/02 09:41:04;;;;;;;3.83;1.63;;;10.40;86.30;;;;;;4966381;28;20019;-71
2023/04/02 09:43:32;;;;;;;2.95;1.67;;;10.50;97.30;;;;;;4963447;28;20030;-70
2023/04/02 09:46:01;;;;;;;2.78;1.70;;;10.40;87.10;;;;;;4965436;28;20026;-71
2023/04/02 09:48:29;;;;;;;3.05;1.42;;;;;;;;;;4968435;28;20035;-71
2023/04/02 09:51:11;;;;;;;4.20;1.63;;;10.40;87.40;;;;;;4982351;28;20031;-71
2023/04/02 09:53:40;;;;;;;2.40;1.90;;;10.40;94.20;;;;;;4968126;28;20090;-71
2023/04/02 09:56:13;;;;;;;2.78;1.90;;;10.40;97.90;;;;;;4967034;28;20369;-70
2023/04/02 09:58:40;;;;;;;3.00;1.90;;;10.40;90.20;;;;;;4958423;28;20385;-71
2023/04/02 10:01:28;;;;;;;2.22;1.50;;;10.60;88.50;;;;;;4968860;28;20025;-70
2023/04/02 10:03:55;;;;;;;9.55;1.75;;;10.30;93.30;;;;;;4972060;28;20444;-71
2023/04/02 10:06:21;;;;;;;1.95;1.75;;;;;;;;;;4971208;28;20492;-71
2023/04/02 10:08:46;;;;;;;1.98;1.70;;;10.90;91.60;;;;;;4971583;28;20050;-71
2023/04/02 10:11:30;;;;;;;2.88;1.73;;;10.80;87.50;;;;;;4971230;28;20054;-70
2023/04/02 10:14:18;;;;;;;3.08;1.83;;;10.60;97.00;;;;;;4971646;28;20035;-70
2023/04/02 10:17:12;;;;;;;2.13;1.35;;;11.00;86.50;;;;;;4971399;28;20038;-71
2023/04/02 10:19:41;;;;;;;4.03;1.83;;;11.00;96.80;;;;;;4971526;28;20031;-71
2023/04/02 10:22:16;;;;;;;4.22;2.20;;;11.20;92.00;;;;;;4970449;28;20058;-71
2023/04/02 10:24:42;;;;;;;3.67;1.90;;;;;;;;;;4971659;28;20484;-71
2023/04/02 10:27:21;;;;;;;6.55;2.85;;;11.90;95.60;;;;;;4971024;28;20053;-71
2023/04/02 10:29:50;;;;;;;6.93;3.45;;;11.80;89.60;;;;;;4972040;28;20050;-71
2023/04/02 10:32:16;;;;;;;8.18;2.95;;;;;;;;;;4966789;28;20121;-70
2023/04/02 10:35:01;;;;;;;2.60;2.10;;;11.70;81.60;;;;;;4967197;28;20022;-71
2023/04/02 10:37:45;;;;;;;7.13;3.67;;;11.80;82.50;;;;;;4971087;28;20035;-70
2023/04/02 10:40:42;;;;;;;2.33;1.40;;;11.90;80.00;;;;;;4971314;28;20101;-70
2023/04/02 10:43:16;;;;;;;1.00;0.90;;;12.00;79.80;;;;;;4968694;28;20034;-71
2023/04/02 10:45:55;;;;;;;2.83;1.55;;;12.00;79.90;;;;;;4985769;28;20027;-71
2023/04/02 10:48:39;;;;;;;5.95;3.22;;;11.80;80.40;;;;;;4967497;28;20057;-71
2023/04/02 10:51:29;;;;;;;1.92;1.52;;;11.50;82.10;;;;;;4967862;28;20078;-71
2023/04/02 10:54:05;;;;;;;1.90;1.73;;;11.20;84.80;;;;;;4970684;28;20404;-71
2023/04/02 10:56:31;;;;;;;3.33;1.90;;;11.10;95.00;;;;;;4970053;28;20050;-71
2023/04/02 10:58:57;;;;;;;3.88;2.30;;;;;;;;;;4966779;28;20023;-70
2023/04/02 11:01:29;;;;;;;5.22;2.40;;;11.00;97.20;;;;;;4958795;28;20519;-71
2023/04/02 11:04:04;;;;;;;1.45;1.25;;;10.80;90.00;;;;;;4961747;28;20470;-71
2023/04/02 11:06:40;;;;;;;2.35;1.95;;;11.20;92.80;;;;;;4960841;28;20057;-70
2023/04/02 11:09:15;;;;;;;2.78;1.63;;;10.60;90.20;;;;;;4969916;28;20041;-70
2023/04/02 11:11:45;;;;;;;1.80;1.23;;;10.60;95.00;;;;;;4959234;28;20106;-71
2023/04/02 11:14:20;;;;;;;2.15;0.90;;;10.40;91.60;;;;;;4962314;28;20550;-71
2023/04/02 11:16:48;;;;;;;0.73;0.73;;;10.20;99.90;;;;;;4970679;28;20484;-70
2023/04/02 11:19:13;;;;;;;0.90;0.80;;;10.10;98.90;;;;;;4970323;28;20034;-70
2023/04/02 11:21:47;;;;;;;1.52;1.35;;;10.40;96.10;;;;;;4970365;28;20035;-70
2023/04/02 11:24:37;;;;;;;1.55;1.10;;;10.50;92.00;;;;;;4970532;28;20043;-71
2023/04/02 11:27:09;;;;;;;1.73;1.20;;;10.70;98.30;;;;;;4971703;28;20073;-72
2023/04/02 11:29:42;;;;;;;1.25;1.10;;;10.40;92.00;;;;;;4970060;28;20084;-70
2023/04/02 11:32:27;;;;;;;1.27;1.10;;;10.40;93.00;;;;;;4962735;28;20046;-71
2023/04/02 11:34:53;;;;;;;1.50;1.40;;;;;;;;;;4966702;28;20045;-71
2023/04/02 11:37:44;;;;;;;1.40;1.00;;;10.60;92.10;;;;;;4970333;28;20592;-71
2023/04/02 11:40:10;;;;;;;3.17;0.88;;;;;;;;;;4969856;28;20035;-71
2023/04/02 11:42:43;;;;;;;2.10;1.17;;;10.60;99.90;;;;;;4969211;28;20444;-71
2023/04/02 11:45:24;;;;;;;21.38;4.07;;;10.70;92.90;;;;;;4969378;28;20093;-71
2023/04/02 11:48:04;;;;;;;3.72;1.30;;;10.70;92.90;;;;;;4966431;28;20072;-71
2023/04/02 11:50:39;;;;;;;5.50;1.00;;;10.70;93.10;;;;;;4963824;28;20039;-71
2023/04/02 11:53:20;;;;;;;1.42;1.13;;;10.80;93.30;;;;;;4969111;28;20035;-70
2023/04/02 11:56:16;;;;;;;0.93;0.90;;;10.90;92.50;;;;;;4968354;28;20027;-72
2023/04/02 11:59:01;;;;;;;1.43;0.90;;;14.20;92.30;;;;;;4969364;28;20026;-72
2023/04/02 12:01:28;;;;;;;4.10;1.52;;;;;;;;;;4967552;28;20113;-71
2023/04/02 12:04:33;;;;;;;1.50;1.00;;;11.80;95.00;;;;;;4968023;28;20034;-71
2023/04/02 12:07:17;;;;;;;2.83;2.00;;;11.50;90.00;;;;;;4963415;28;20027;-71
2023/04/02 12:09:55;;;;;;;4.10;1.50;;;11.40;97.60;;;;;;4969147;28;20057;-71
2023/04/02 12:12:42;;;;;;;6.22;2.35;;;11.00;92.70;;;;;;4968362;28;20034;-71
2023/04/02 12:15:47;;;;;;;1.17;1.10;;;10.90;93.20;;;;;;4964161;28;20031;-71
2023/04/02 12:18:13;;;;;;;2.00;1.85;;;;;;;;;;4984981;28;20309;-70
2023/04/02 12:20:39;;;;;;;2.60;1.65;;;;;;;;;;4984737;28;20137;-71
2023/04/02 12:23:05;;;;;;;0.85;0.85;;;;;;;;;;4985381;28;20030;-72
2023/04/02 12:25:39;;;;;;;2.03;1.40;;;11.40;92.20;;;;;;4984751;28;20121;-70
2023/04/02 12:28:13;;;;;;;0.95;0.95;;;11.80;90.80;;;;;;4984898;28;20117;-71
2023/04/02 12:30:40;;;;;;;0.80;0.80;;;12.00;88.10;;;;;;4985631;28;20030;-71
2023/04/02 12:33:25;;;;;;;1.65;1.00;;;;;;;;;;4985233;28;20046;-71
2023/04/02 12:35:56;;;;;;;0.85;0.85;;;12.00;91.50;;;;;;4985568;28;20514;-71
2023/04/02 12:38:28;;;;;;;1.52;1.20;;;12.20;87.10;;;;;;4984670;28;20046;-70
2023/04/02 12:41:05;;;;;;;2.05;0.95;;;12.20;86.40;;;;;;4984728;28;20023;-71
2023/04/02 12:43:36;;;;;;;0.68;0.68;;;12.20;89.40;;;;;;4985698;28;20476;-71
2023/04/02 12:46:07;;;;;;;2.25;1.10;;;12.30;85.30;;;;;;4985004;28;20061;-71
2023/04/02 12:48:34;;;;;;;0.93;0.90;;;11.70;95.20;;;;;;4985465;28;20031;-71
2023/04/02 12:51:01;;;;;;;2.95;0.70;;;11.80;88.50;;;;;;4983892;28;20073;-71
2023/04/02 12:53:33;;;;;;;0.50;0.50;;;11.80;89.60;;;;;;4962711;28;20031;-71
2023/04/02 12:55:59;;;;;;;0.60;0.60;;;11.80;89.30;;;;;;4968131;28;20023;-71
2023/04/02 12:58:25;;;;;;;0.55;0.55;;;;;;;;;;4967197;28;20041;-70
2023/04/02 13:00:51;;;;;;;0.60;0.60;;;;;;;;;;4968727;28;20024;-71
2023/04/02 13:03:21;;;;;;;0.93;0.68;;;11.90;88.90;;;;;;4961283;28;20031;-70
2023/04/02 13:05:55;;;;;;;0.90;0.90;;;12.10;90.60;;;;;;4959804;28;20146;-70
2023/04/02 13:08:21;;;;;;;4.78;2.88;;;;;;;;;;4967726;28;20027;-71
2023/04/02 13:10:53;;;;;;;0.40;0.40;;;12.30;85.30;;;;;;4968074;28;20039;-70
2023/04/02 13:13:28;;;;;;;0.60;0.60;;;12.10;84.90;;;;;;4968590;28;20034;-70
2023/04/02 13:16:20;;;;;;;0.70;0.70;;;11.80;87.40;;;;;;4968381;28;20070;-70
2023/04/02 13:18:47;;;;;;;0.60;0.60;;;11.50;98.10;;;;;;4968351;28;20027;-70
2023/04/02 13:21:19;;;;;;;0.70;0.70;;;11.40;98.80;;;;;;4961264;28;20031;-71
2023/04/02 13:23:45;;;;;;;0.93;0.80;;;;;;;;;;4955881;28;20493;-72
2023/04/02 13:26:16;;;;;;;0.85;0.80;;;;;;;;;;4963056;28;20019;-71
2023/04/02 13:28:42;;;;;;;1.27;0.70;;;;;;;;;;4958455;28;20044;-72
2023/04/02 13:31:15;;;;;;;0.73;0.73;;;11.80;92.30;;;;;;4967648;28;20373;-72
2023/04/02 13:33:41;;;;;;;0.73;0.73;;;;;;;;;;4954772;28;20054;-71
2023/04/02 13:36:14;;;;;;;1.67;1.08;;;11.60;88.40;;;;;;4968742;28;20492;-72
2023/04/02 13:38:41;;;;;;;1.35;1.17;;;11.70;88.00;;;;;;4970085;28;20036;-71
2023/04/02 13:41:27;;;;;;;1.20;1.10;;;11.90;87.70;;;;;;4968708;28;20029;-72
2023/04/02 13:43:54;;;;;;;0.80;0.80;;;11.90;90.30;;;;;;4962588;28;20026;-72